sensor_id;sensor_type;location;lat;lon;timestamp;P1;durP1;ratioP1;P2;durP2;ratioP2
8594;SDS011;4335;48.860;9.198;2022-12-20T00:00:14;19.37;;;12.63;;
8594;SDS011;4335;48.860;9.198;2022-12-20T00:02:42;17.47;;;12.63;;
8594;SDS011;4335;48.860;9.198;2022-12-20T00:05:09;17.87;;;13.30;;
8594;SDS011;4335;48.860;9.198;2022-12-20T00:07:37;18.93;;;13.33;;
8594;SDS011;4335;48.860;9.198;2022-12-20T00:10:05;17.17;;;12.77;;
8594;SDS011;4335;48.860;9.198;2022-12-20T00:12:33;19.40;;;12.37;;
8594;SDS011;4335;48.860;9.198;2022-12-20T00:15:00;15.73;;;11.67;;
8594;SDS011;4335;48.860;9.198;2022-12-20T00:17:30;17.70;;;13.17;;
8594;SDS011;4335;48.860;9.198;2022-12-20T00:19:57;19.50;;;13.37;;
8594;SDS011;4335;48.860;9.198;2022-12-20T00:22:25;18.63;;;12.53;;
8594;SDS011;4335;48.860;9.198;2022-12-20T00:24:52;16.33;;;11.97;;
8594;SDS011;4335;48.860;9.198;2022-12-20T00:27:19;15.00;;;11.63;;
8594;SDS011;4335;48.860;9.198;2022-12-20T00:29:47;17.70;;;12.17;;
8594;SDS011;4335;48.860;9.198;2022-12-20T00:32:14;15.87;;;13.03;;
8594;SDS011;4335;48.860;9.198;2022-12-20T00:34:43;19.37;;;11.93;;
8594;SDS011;4335;48.860;9.198;2022-12-20T00:37:10;16.63;;;11.93;;
8594;SDS011;4335;48.860;9.198;2022-12-20T00:39:38;17.00;;;12.10;;
8594;SDS011;4335;48.860;9.198;2022-12-20T00:42:05;19.20;;;12.13;;
8594;SDS011;4335;48.860;9.198;2022-12-20T00:44:33;16.10;;;11.37;;
8594;SDS011;4335;48.860;9.198;2022-12-20T00:47:00;19.10;;;13.27;;
8594;SDS011;4335;48.860;9.198;2022-12-20T00:49:27;15.67;;;11.53;;
8594;SDS011;4335;48.860;9.198;2022-12-20T00:51:56;15.30;;;12.00;;
8594;SDS011;4335;48.860;9.198;2022-12-20T00:54:24;17.73;;;12.30;;
8594;SDS011;4335;48.860;9.198;2022-12-20T00:56:51;19.10;;;13.03;;
8594;SDS011;4335;48.860;9.198;2022-12-20T00:59:19;16.40;;;12.03;;
8594;SDS011;4335;48.860;9.198;2022-12-20T01:01:46;15.57;;;11.93;;
8594;SDS011;4335;48.860;9.198;2022-12-20T01:04:14;16.17;;;11.20;;
8594;SDS011;4335;48.860;9.198;2022-12-20T01:06:41;19.37;;;13.30;;
8594;SDS011;4335;48.860;9.198;2022-12-20T01:09:16;16.73;;;12.20;;
8594;SDS011;4335;48.860;9.198;2022-12-20T01:11:46;18.17;;;12.97;;
8594;SDS011;4335;48.860;9.198;2022-12-20T01:14:17;15.77;;;12.37;;
8594;SDS011;4335;48.860;9.198;2022-12-20T01:16:45;17.00;;;12.93;;
8594;SDS011;4335;48.860;9.198;2022-12-20T01:19:14;17.03;;;12.13;;
8594;SDS011;4335;48.860;9.198;2022-12-20T01:21:43;17.43;;;12.00;;
8594;SDS011;4335;48.860;9.198;2022-12-20T01:24:10;16.80;;;12.53;;
8594;SDS011;4335;48.860;9.198;2022-12-20T01:26:40;20.17;;;12.23;;
8594;SDS011;4335;48.860;9.198;2022-12-20T01:29:08;16.47;;;12.57;;
8594;SDS011;4335;48.860;9.198;2022-12-20T01:31:38;16.97;;;12.47;;
8594;SDS011;4335;48.860;9.198;2022-12-20T01:34:06;15.20;;;11.90;;
8594;SDS011;4335;48.860;9.198;2022-12-20T01:36:40;16.50;;;12.53;;
8594;SDS011;4335;48.860;9.198;2022-12-20T01:39:08;17.77;;;12.50;;
8594;SDS011;4335;48.860;9.198;2022-12-20T01:41:47;15.50;;;12.13;;
8594;SDS011;4335;48.860;9.198;2022-12-20T01:47:21;14.90;;;11.80;;
8594;SDS011;4335;48.860;9.198;2022-12-20T01:49:50;15.77;;;13.03;;
8594;SDS011;4335;48.860;9.198;2022-12-20T01:52:22;16.90;;;12.73;;
8594;SDS011;4335;48.860;9.198;2022-12-20T01:54:56;16.73;;;12.27;;
8594;SDS011;4335;48.860;9.198;2022-12-20T01:57:35;16.93;;;12.00;;
8594;SDS011;4335;48.860;9.198;2022-12-20T02:00:12;15.67;;;12.03;;
8594;SDS011;4335;48.860;9.198;2022-12-20T02:02:40;17.43;;;12.40;;
8594;SDS011;4335;48.860;9.198;2022-12-20T02:05:09;17.63;;;12.33;;
8594;SDS011;4335;48.860;9.198;2022-12-20T02:07:38;15.63;;;12.73;;
8594;SDS011;4335;48.860;9.198;2022-12-20T02:10:08;16.47;;;13.20;;
8594;SDS011;4335;48.860;9.198;2022-12-20T02:12:42;17.13;;;13.03;;
8594;SDS011;4335;48.860;9.198;2022-12-20T02:18:10;17.23;;;11.27;;
8594;SDS011;4335;48.860;9.198;2022-12-20T02:20:56;17.60;;;11.50;;
8594;SDS011;4335;48.860;9.198;2022-12-20T02:30:14;21.80;;;14.63;;
8594;SDS011;4335;48.860;9.198;2022-12-20T02:32:51;16.53;;;12.27;;
8594;SDS011;4335;48.860;9.198;2022-12-20T02:35:28;18.50;;;11.73;;
8594;SDS011;4335;48.860;9.198;2022-12-20T02:38:00;15.87;;;12.07;;
8594;SDS011;4335;48.860;9.198;2022-12-20T02:40:30;15.03;;;11.90;;
8594;SDS011;4335;48.860;9.198;2022-12-20T02:43:05;15.73;;;11.43;;
8594;SDS011;4335;48.860;9.198;2022-12-20T02:45:58;17.17;;;11.53;;
8594;SDS011;4335;48.860;9.198;2022-12-20T02:48:27;16.17;;;11.80;;
8594;SDS011;4335;48.860;9.198;2022-12-20T02:50:57;14.60;;;10.50;;
8594;SDS011;4335;48.860;9.198;2022-12-20T02:53:27;16.50;;;11.93;;
8594;SDS011;4335;48.860;9.198;2022-12-20T02:55:56;14.83;;;11.90;;
8594;SDS011;4335;48.860;9.198;2022-12-20T02:58:28;15.93;;;11.90;;
8594;SDS011;4335;48.860;9.198;2022-12-20T03:01:02;15.50;;;12.53;;
8594;SDS011;4335;48.860;9.198;2022-12-20T03:03:34;16.53;;;11.07;;
8594;SDS011;4335;48.860;9.198;2022-12-20T03:06:02;15.17;;;11.30;;
8594;SDS011;4335;48.860;9.198;2022-12-20T03:08:33;15.93;;;11.77;;
8594;SDS011;4335;48.860;9.198;2022-12-20T03:11:00;16.23;;;11.43;;
8594;SDS011;4335;48.860;9.198;2022-12-20T03:13:28;16.50;;;11.70;;
8594;SDS011;4335;48.860;9.198;2022-12-20T03:15:55;13.43;;;10.50;;
8594;SDS011;4335;48.860;9.198;2022-12-20T03:18:24;14.13;;;11.00;;
8594;SDS011;4335;48.860;9.198;2022-12-20T03:20:52;17.40;;;11.97;;
8594;SDS011;4335;48.860;9.198;2022-12-20T03:23:19;14.03;;;10.57;;
8594;SDS011;4335;48.860;9.198;2022-12-20T03:25:47;15.60;;;11.27;;
8594;SDS011;4335;48.860;9.198;2022-12-20T03:28:15;15.43;;;10.90;;
8594;SDS011;4335;48.860;9.198;2022-12-20T03:30:46;15.33;;;11.93;;
8594;SDS011;4335;48.860;9.198;2022-12-20T03:33:14;15.00;;;11.13;;
8594;SDS011;4335;48.860;9.198;2022-12-20T03:35:47;16.23;;;10.47;;
8594;SDS011;4335;48.860;9.198;2022-12-20T03:38:17;17.80;;;12.03;;
8594;SDS011;4335;48.860;9.198;2022-12-20T03:40:45;14.30;;;11.33;;
8594;SDS011;4335;48.860;9.198;2022-12-20T03:43:12;13.07;;;10.60;;
8594;SDS011;4335;48.860;9.198;2022-12-20T03:45:39;15.57;;;10.70;;
8594;SDS011;4335;48.860;9.198;2022-12-20T03:48:07;16.03;;;11.33;;
8594;SDS011;4335;48.860;9.198;2022-12-20T03:50:34;17.20;;;11.47;;
8594;SDS011;4335;48.860;9.198;2022-12-20T03:53:03;13.57;;;10.20;;
8594;SDS011;4335;48.860;9.198;2022-12-20T03:55:33;15.03;;;11.07;;
8594;SDS011;4335;48.860;9.198;2022-12-20T03:58:01;15.00;;;11.07;;
8594;SDS011;4335;48.860;9.198;2022-12-20T04:00:31;15.90;;;10.97;;
8594;SDS011;4335;48.860;9.198;2022-12-20T04:02:58;15.23;;;9.93;;
8594;SDS011;4335;48.860;9.198;2022-12-20T04:05:26;15.03;;;10.00;;
8594;SDS011;4335;48.860;9.198;2022-12-20T04:07:53;13.77;;;10.47;;
8594;SDS011;4335;48.860;9.198;2022-12-20T04:10:22;15.13;;;10.63;;
8594;SDS011;4335;48.860;9.198;2022-12-20T04:12:49;15.87;;;11.53;;
8594;SDS011;4335;48.860;9.198;2022-12-20T04:15:17;15.23;;;10.33;;
8594;SDS011;4335;48.860;9.198;2022-12-20T04:17:44;13.37;;;9.93;;
8594;SDS011;4335;48.860;9.198;2022-12-20T04:20:18;16.43;;;10.10;;
8594;SDS011;4335;48.860;9.198;2022-12-20T04:22:49;13.73;;;10.23;;
8594;SDS011;4335;48.860;9.198;2022-12-20T04:25:17;12.80;;;10.33;;
8594;SDS011;4335;48.860;9.198;2022-12-20T04:27:47;14.10;;;10.93;;
8594;SDS011;4335;48.860;9.198;2022-12-20T04:30:15;13.73;;;10.27;;
8594;SDS011;4335;48.860;9.198;2022-12-20T04:32:42;16.53;;;10.27;;
8594;SDS011;4335;48.860;9.198;2022-12-20T04:35:13;14.63;;;10.87;;
8594;SDS011;4335;48.860;9.198;2022-12-20T04:37:40;11.33;;;9.03;;
8594;SDS011;4335;48.860;9.198;2022-12-20T04:40:08;12.33;;;9.97;;
8594;SDS011;4335;48.860;9.198;2022-12-20T04:42:39;13.83;;;10.00;;
8594;SDS011;4335;48.860;9.198;2022-12-20T04:45:08;15.50;;;11.07;;
8594;SDS011;4335;48.860;9.198;2022-12-20T04:47:36;14.20;;;9.43;;
8594;SDS011;4335;48.860;9.198;2022-12-20T04:50:06;13.57;;;9.47;;
8594;SDS011;4335;48.860;9.198;2022-12-20T04:52:34;14.03;;;10.80;;
8594;SDS011;4335;48.860;9.198;2022-12-20T04:55:19;14.33;;;9.47;;
8594;SDS011;4335;48.860;9.198;2022-12-20T04:57:46;23.93;;;14.57;;
8594;SDS011;4335;48.860;9.198;2022-12-20T05:00:15;15.60;;;10.93;;
8594;SDS011;4335;48.860;9.198;2022-12-20T05:02:43;15.37;;;10.67;;
8594;SDS011;4335;48.860;9.198;2022-12-20T05:05:11;14.00;;;10.70;;
8594;SDS011;4335;48.860;9.198;2022-12-20T05:07:38;12.30;;;9.33;;
8594;SDS011;4335;48.860;9.198;2022-12-20T05:10:06;13.43;;;10.17;;
8594;SDS011;4335;48.860;9.198;2022-12-20T05:12:37;14.43;;;10.17;;
8594;SDS011;4335;48.860;9.198;2022-12-20T05:15:04;16.83;;;10.63;;
8594;SDS011;4335;48.860;9.198;2022-12-20T05:17:37;12.67;;;9.10;;
8594;SDS011;4335;48.860;9.198;2022-12-20T05:20:07;11.60;;;9.17;;
8594;SDS011;4335;48.860;9.198;2022-12-20T05:22:39;12.83;;;9.63;;
8594;SDS011;4335;48.860;9.198;2022-12-20T05:25:26;15.20;;;10.20;;
8594;SDS011;4335;48.860;9.198;2022-12-20T05:28:11;13.50;;;9.90;;
8594;SDS011;4335;48.860;9.198;2022-12-20T05:30:38;13.17;;;8.53;;
8594;SDS011;4335;48.860;9.198;2022-12-20T05:33:08;12.57;;;9.20;;
8594;SDS011;4335;48.860;9.198;2022-12-20T05:35:36;10.53;;;8.63;;
8594;SDS011;4335;48.860;9.198;2022-12-20T05:38:03;10.73;;;8.67;;
8594;SDS011;4335;48.860;9.198;2022-12-20T05:40:30;11.20;;;8.53;;
8594;SDS011;4335;48.860;9.198;2022-12-20T05:43:03;13.50;;;9.53;;
8594;SDS011;4335;48.860;9.198;2022-12-20T05:45:31;15.37;;;10.23;;
8594;SDS011;4335;48.860;9.198;2022-12-20T05:47:58;12.70;;;9.60;;
8594;SDS011;4335;48.860;9.198;2022-12-20T05:50:27;13.77;;;8.53;;
8594;SDS011;4335;48.860;9.198;2022-12-20T05:52:57;12.80;;;9.63;;
8594;SDS011;4335;48.860;9.198;2022-12-20T05:55:28;10.97;;;8.03;;
8594;SDS011;4335;48.860;9.198;2022-12-20T05:57:59;15.77;;;10.70;;
8594;SDS011;4335;48.860;9.198;2022-12-20T06:00:26;11.13;;;8.87;;
8594;SDS011;4335;48.860;9.198;2022-12-20T06:02:56;13.03;;;7.67;;
8594;SDS011;4335;48.860;9.198;2022-12-20T06:05:24;12.20;;;7.57;;
8594;SDS011;4335;48.860;9.198;2022-12-20T06:07:52;10.40;;;8.03;;
8594;SDS011;4335;48.860;9.198;2022-12-20T06:10:20;10.03;;;8.20;;
8594;SDS011;4335;48.860;9.198;2022-12-20T06:12:53;12.53;;;8.00;;
8594;SDS011;4335;48.860;9.198;2022-12-20T06:15:21;11.03;;;8.03;;
8594;SDS011;4335;48.860;9.198;2022-12-20T06:17:48;12.00;;;8.60;;
8594;SDS011;4335;48.860;9.198;2022-12-20T06:20:24;11.20;;;8.40;;
8594;SDS011;4335;48.860;9.198;2022-12-20T06:22:54;12.37;;;8.63;;
8594;SDS011;4335;48.860;9.198;2022-12-20T06:25:21;9.67;;;7.93;;
8594;SDS011;4335;48.860;9.198;2022-12-20T06:27:49;11.07;;;8.67;;
8594;SDS011;4335;48.860;9.198;2022-12-20T06:30:16;10.97;;;7.70;;
8594;SDS011;4335;48.860;9.198;2022-12-20T06:32:46;9.93;;;7.93;;
8594;SDS011;4335;48.860;9.198;2022-12-20T06:35:14;10.73;;;8.43;;
8594;SDS011;4335;48.860;9.198;2022-12-20T06:37:41;11.17;;;8.53;;
8594;SDS011;4335;48.860;9.198;2022-12-20T06:40:11;11.67;;;8.13;;
8594;SDS011;4335;48.860;9.198;2022-12-20T06:42:42;13.13;;;8.27;;
8594;SDS011;4335;48.860;9.198;2022-12-20T06:45:10;10.93;;;9.07;;
8594;SDS011;4335;48.860;9.198;2022-12-20T06:47:38;14.70;;;9.23;;
8594;SDS011;4335;48.860;9.198;2022-12-20T06:50:05;10.30;;;7.90;;
8594;SDS011;4335;48.860;9.198;2022-12-20T06:52:33;13.20;;;9.37;;
8594;SDS011;4335;48.860;9.198;2022-12-20T06:55:01;11.20;;;9.10;;
8594;SDS011;4335;48.860;9.198;2022-12-20T06:57:30;13.73;;;8.57;;
8594;SDS011;4335;48.860;9.198;2022-12-20T06:59:57;9.80;;;7.70;;
8594;SDS011;4335;48.860;9.198;2022-12-20T07:02:24;12.23;;;8.77;;
8594;SDS011;4335;48.860;9.198;2022-12-20T07:04:52;10.23;;;7.77;;
8594;SDS011;4335;48.860;9.198;2022-12-20T07:07:20;10.30;;;8.30;;
8594;SDS011;4335;48.860;9.198;2022-12-20T07:09:47;13.53;;;8.87;;
8594;SDS011;4335;48.860;9.198;2022-12-20T07:12:21;11.47;;;8.50;;
8594;SDS011;4335;48.860;9.198;2022-12-20T07:14:50;12.73;;;9.03;;
8594;SDS011;4335;48.860;9.198;2022-12-20T07:17:20;12.17;;;8.77;;
8594;SDS011;4335;48.860;9.198;2022-12-20T07:19:54;11.77;;;7.83;;
8594;SDS011;4335;48.860;9.198;2022-12-20T07:22:21;15.80;;;9.10;;
8594;SDS011;4335;48.860;9.198;2022-12-20T07:24:48;13.27;;;7.73;;
8594;SDS011;4335;48.860;9.198;2022-12-20T07:27:16;11.63;;;8.07;;
8594;SDS011;4335;48.860;9.198;2022-12-20T07:29:43;15.73;;;10.00;;
8594;SDS011;4335;48.860;9.198;2022-12-20T07:32:15;12.40;;;8.73;;
8594;SDS011;4335;48.860;9.198;2022-12-20T07:34:43;11.13;;;8.03;;
8594;SDS011;4335;48.860;9.198;2022-12-20T07:37:14;11.37;;;9.30;;
8594;SDS011;4335;48.860;9.198;2022-12-20T07:39:47;14.97;;;10.10;;
8594;SDS011;4335;48.860;9.198;2022-12-20T07:42:18;12.57;;;9.73;;
8594;SDS011;4335;48.860;9.198;2022-12-20T07:44:45;10.70;;;8.53;;
8594;SDS011;4335;48.860;9.198;2022-12-20T07:47:12;12.73;;;8.70;;
8594;SDS011;4335;48.860;9.198;2022-12-20T07:49:41;8.93;;;7.70;;
8594;SDS011;4335;48.860;9.198;2022-12-20T07:52:09;10.13;;;8.40;;
8594;SDS011;4335;48.860;9.198;2022-12-20T07:54:39;12.03;;;9.07;;
8594;SDS011;4335;48.860;9.198;2022-12-20T07:57:12;12.03;;;9.27;;
8594;SDS011;4335;48.860;9.198;2022-12-20T07:59:47;12.47;;;8.80;;
8594;SDS011;4335;48.860;9.198;2022-12-20T08:02:21;12.57;;;8.97;;
8594;SDS011;4335;48.860;9.198;2022-12-20T08:04:56;10.90;;;7.60;;
8594;SDS011;4335;48.860;9.198;2022-12-20T08:07:23;13.10;;;8.53;;
8594;SDS011;4335;48.860;9.198;2022-12-20T08:09:52;10.97;;;8.20;;
8594;SDS011;4335;48.860;9.198;2022-12-20T08:12:23;12.53;;;8.17;;
8594;SDS011;4335;48.860;9.198;2022-12-20T08:15:00;9.57;;;8.20;;
8594;SDS011;4335;48.860;9.198;2022-12-20T08:17:28;10.03;;;6.97;;
8594;SDS011;4335;48.860;9.198;2022-12-20T08:19:57;12.77;;;8.10;;
8594;SDS011;4335;48.860;9.198;2022-12-20T08:22:27;12.43;;;7.53;;
8594;SDS011;4335;48.860;9.198;2022-12-20T08:24:57;11.63;;;8.30;;
8594;SDS011;4335;48.860;9.198;2022-12-20T08:27:25;9.47;;;7.03;;
8594;SDS011;4335;48.860;9.198;2022-12-20T08:29:54;9.93;;;7.27;;
8594;SDS011;4335;48.860;9.198;2022-12-20T08:32:22;13.93;;;9.30;;
8594;SDS011;4335;48.860;9.198;2022-12-20T08:34:49;10.83;;;7.90;;
8594;SDS011;4335;48.860;9.198;2022-12-20T08:37:19;10.53;;;7.37;;
8594;SDS011;4335;48.860;9.198;2022-12-20T08:39:46;10.87;;;6.73;;
8594;SDS011;4335;48.860;9.198;2022-12-20T08:42:17;10.23;;;7.27;;
8594;SDS011;4335;48.860;9.198;2022-12-20T08:44:44;11.37;;;7.50;;
8594;SDS011;4335;48.860;9.198;2022-12-20T08:47:18;9.33;;;6.30;;
8594;SDS011;4335;48.860;9.198;2022-12-20T08:49:48;9.30;;;6.87;;
8594;SDS011;4335;48.860;9.198;2022-12-20T08:52:16;11.60;;;7.33;;
8594;SDS011;4335;48.860;9.198;2022-12-20T08:54:44;10.40;;;7.07;;
8594;SDS011;4335;48.860;9.198;2022-12-20T08:57:12;8.33;;;7.23;;
8594;SDS011;4335;48.860;9.198;2022-12-20T08:59:39;10.40;;;7.47;;
8594;SDS011;4335;48.860;9.198;2022-12-20T09:02:09;10.50;;;7.17;;
8594;SDS011;4335;48.860;9.198;2022-12-20T09:04:37;9.13;;;7.60;;
8594;SDS011;4335;48.860;9.198;2022-12-20T09:07:07;11.03;;;7.17;;
8594;SDS011;4335;48.860;9.198;2022-12-20T09:09:35;10.07;;;6.80;;
8594;SDS011;4335;48.860;9.198;2022-12-20T09:12:04;8.23;;;6.63;;
8594;SDS011;4335;48.860;9.198;2022-12-20T09:14:34;10.23;;;6.70;;
8594;SDS011;4335;48.860;9.198;2022-12-20T09:17:03;8.47;;;6.43;;
8594;SDS011;4335;48.860;9.198;2022-12-20T09:19:33;8.53;;;6.47;;
8594;SDS011;4335;48.860;9.198;2022-12-20T09:22:04;8.23;;;6.63;;
8594;SDS011;4335;48.860;9.198;2022-12-20T09:24:31;8.33;;;6.50;;
8594;SDS011;4335;48.860;9.198;2022-12-20T09:26:59;7.50;;;5.93;;
8594;SDS011;4335;48.860;9.198;2022-12-20T09:29:27;11.77;;;7.27;;
8594;SDS011;4335;48.860;9.198;2022-12-20T09:32:01;10.43;;;6.97;;
8594;SDS011;4335;48.860;9.198;2022-12-20T09:34:34;10.20;;;7.63;;
8594;SDS011;4335;48.860;9.198;2022-12-20T09:37:03;10.57;;;7.33;;
8594;SDS011;4335;48.860;9.198;2022-12-20T09:39:30;14.40;;;8.07;;
8594;SDS011;4335;48.860;9.198;2022-12-20T09:41:58;11.03;;;7.43;;
8594;SDS011;4335;48.860;9.198;2022-12-20T09:44:26;25.00;;;10.53;;
8594;SDS011;4335;48.860;9.198;2022-12-20T09:46:57;16.30;;;8.27;;
8594;SDS011;4335;48.860;9.198;2022-12-20T09:49:34;9.73;;;7.27;;
8594;SDS011;4335;48.860;9.198;2022-12-20T09:52:10;10.93;;;7.72;;
8594;SDS011;4335;48.860;9.198;2022-12-20T09:54:52;9.73;;;7.10;;
8594;SDS011;4335;48.860;9.198;2022-12-20T09:57:30;10.73;;;7.37;;
8594;SDS011;4335;48.860;9.198;2022-12-20T10:02:45;8.83;;;6.17;;
8594;SDS011;4335;48.860;9.198;2022-12-20T10:05:13;8.27;;;6.53;;
8594;SDS011;4335;48.860;9.198;2022-12-20T10:07:46;8.90;;;7.17;;
8594;SDS011;4335;48.860;9.198;2022-12-20T10:13:22;11.60;;;6.90;;
8594;SDS011;4335;48.860;9.198;2022-12-20T10:16:03;10.77;;;7.93;;
8594;SDS011;4335;48.860;9.198;2022-12-20T10:18:45;10.97;;;7.83;;
8594;SDS011;4335;48.860;9.198;2022-12-20T10:21:24;6.70;;;5.60;;
8594;SDS011;4335;48.860;9.198;2022-12-20T10:24:00;6.93;;;5.73;;
8594;SDS011;4335;48.860;9.198;2022-12-20T10:26:29;6.90;;;5.70;;
8594;SDS011;4335;48.860;9.198;2022-12-20T10:28:58;10.60;;;6.13;;
8594;SDS011;4335;48.860;9.198;2022-12-20T10:31:27;7.73;;;6.37;;
8594;SDS011;4335;48.860;9.198;2022-12-20T10:33:57;7.60;;;6.50;;
8594;SDS011;4335;48.860;9.198;2022-12-20T10:36:25;9.30;;;6.73;;
8594;SDS011;4335;48.860;9.198;2022-12-20T10:38:59;10.37;;;6.73;;
8594;SDS011;4335;48.860;9.198;2022-12-20T10:41:28;6.83;;;5.87;;
8594;SDS011;4335;48.860;9.198;2022-12-20T10:43:59;9.07;;;6.47;;
8594;SDS011;4335;48.860;9.198;2022-12-20T10:46:37;7.77;;;5.40;;
8594;SDS011;4335;48.860;9.198;2022-12-20T10:49:21;5.87;;;4.90;;
8594;SDS011;4335;48.860;9.198;2022-12-20T10:51:54;7.33;;;5.00;;
8594;SDS011;4335;48.860;9.198;2022-12-20T10:54:28;9.60;;;6.70;;
8594;SDS011;4335;48.860;9.198;2022-12-20T10:57:02;7.10;;;5.23;;
8594;SDS011;4335;48.860;9.198;2022-12-20T10:59:39;7.80;;;5.30;;
8594;SDS011;4335;48.860;9.198;2022-12-20T11:05:03;5.70;;;4.80;;
8594;SDS011;4335;48.860;9.198;2022-12-20T11:07:54;6.03;;;4.60;;
8594;SDS011;4335;48.860;9.198;2022-12-20T11:10:23;6.70;;;4.90;;
8594;SDS011;4335;48.860;9.198;2022-12-20T11:12:58;8.70;;;5.30;;
8594;SDS011;4335;48.860;9.198;2022-12-20T11:15:28;8.00;;;6.10;;
8594;SDS011;4335;48.860;9.198;2022-12-20T11:17:58;7.00;;;5.20;;
8594;SDS011;4335;48.860;9.198;2022-12-20T11:20:34;10.33;;;6.43;;
8594;SDS011;4335;48.860;9.198;2022-12-20T11:23:09;12.20;;;8.17;;
8594;SDS011;4335;48.860;9.198;2022-12-20T11:28:43;7.07;;;5.80;;
8594;SDS011;4335;48.860;9.198;2022-12-20T11:31:19;10.47;;;6.07;;
8594;SDS011;4335;48.860;9.198;2022-12-20T11:34:06;9.97;;;6.37;;
8594;SDS011;4335;48.860;9.198;2022-12-20T11:36:48;9.63;;;5.87;;
8594;SDS011;4335;48.860;9.198;2022-12-20T11:39:31;9.20;;;5.87;;
8594;SDS011;4335;48.860;9.198;2022-12-20T11:42:04;7.40;;;6.43;;
8594;SDS011;4335;48.860;9.198;2022-12-20T11:44:44;7.10;;;5.90;;
8594;SDS011;4335;48.860;9.198;2022-12-20T11:47:24;6.17;;;5.47;;
8594;SDS011;4335;48.860;9.198;2022-12-20T11:50:08;9.27;;;6.43;;
8594;SDS011;4335;48.860;9.198;2022-12-20T11:52:46;7.27;;;5.63;;
8594;SDS011;4335;48.860;9.198;2022-12-20T11:55:18;9.30;;;6.07;;
8594;SDS011;4335;48.860;9.198;2022-12-20T11:57:53;8.90;;;5.43;;
8594;SDS011;4335;48.860;9.198;2022-12-20T12:00:26;8.60;;;6.20;;
8594;SDS011;4335;48.860;9.198;2022-12-20T12:02:56;6.90;;;5.90;;
8594;SDS011;4335;48.860;9.198;2022-12-20T12:05:32;6.57;;;5.40;;
8594;SDS011;4335;48.860;9.198;2022-12-20T12:08:09;6.77;;;5.87;;
8594;SDS011;4335;48.860;9.198;2022-12-20T12:10:40;8.67;;;6.07;;
8594;SDS011;4335;48.860;9.198;2022-12-20T12:13:22;7.20;;;5.53;;
8594;SDS011;4335;48.860;9.198;2022-12-20T12:15:53;7.37;;;5.83;;
8594;SDS011;4335;48.860;9.198;2022-12-20T12:18:27;9.10;;;6.47;;
8594;SDS011;4335;48.860;9.198;2022-12-20T12:20:59;7.73;;;6.13;;
8594;SDS011;4335;48.860;9.198;2022-12-20T12:23:33;10.17;;;7.27;;
8594;SDS011;4335;48.860;9.198;2022-12-20T12:26:14;7.53;;;6.60;;
8594;SDS011;4335;48.860;9.198;2022-12-20T12:28:46;11.97;;;8.37;;
8594;SDS011;4335;48.860;9.198;2022-12-20T12:31:24;12.97;;;11.13;;
8594;SDS011;4335;48.860;9.198;2022-12-20T12:34:00;9.00;;;7.53;;
8594;SDS011;4335;48.860;9.198;2022-12-20T12:36:55;8.43;;;7.40;;
8594;SDS011;4335;48.860;9.198;2022-12-20T12:45:40;9.30;;;6.40;;
8594;SDS011;4335;48.860;9.198;2022-12-20T12:48:15;8.17;;;6.23;;
8594;SDS011;4335;48.860;9.198;2022-12-20T12:50:52;14.10;;;10.20;;
8594;SDS011;4335;48.860;9.198;2022-12-20T12:53:25;9.47;;;6.73;;
8594;SDS011;4335;48.860;9.198;2022-12-20T12:59:12;7.53;;;6.30;;
8594;SDS011;4335;48.860;9.198;2022-12-20T13:01:51;7.67;;;6.07;;
8594;SDS011;4335;48.860;9.198;2022-12-20T13:04:24;7.47;;;5.80;;
8594;SDS011;4335;48.860;9.198;2022-12-20T13:06:54;7.60;;;5.30;;
8594;SDS011;4335;48.860;9.198;2022-12-20T13:09:42;9.10;;;5.63;;
8594;SDS011;4335;48.860;9.198;2022-12-20T13:18:28;9.23;;;5.80;;
8594;SDS011;4335;48.860;9.198;2022-12-20T13:27:24;6.20;;;5.17;;
8594;SDS011;4335;48.860;9.198;2022-12-20T13:29:56;9.77;;;6.00;;
8594;SDS011;4335;48.860;9.198;2022-12-20T13:35:29;5.97;;;4.70;;
8594;SDS011;4335;48.860;9.198;2022-12-20T13:38:01;9.40;;;6.10;;
8594;SDS011;4335;48.860;9.198;2022-12-20T13:40:35;9.10;;;6.40;;
8594;SDS011;4335;48.860;9.198;2022-12-20T13:43:05;9.17;;;6.30;;
8594;SDS011;4335;48.860;9.198;2022-12-20T13:45:39;7.57;;;5.90;;
8594;SDS011;4335;48.860;9.198;2022-12-20T13:48:11;7.27;;;5.67;;
8594;SDS011;4335;48.860;9.198;2022-12-20T13:50:47;8.17;;;6.70;;
8594;SDS011;4335;48.860;9.198;2022-12-20T13:53:17;8.10;;;6.17;;
8594;SDS011;4335;48.860;9.198;2022-12-20T13:55:48;8.70;;;5.33;;
8594;SDS011;4335;48.860;9.198;2022-12-20T13:58:16;8.47;;;6.17;;
8594;SDS011;4335;48.860;9.198;2022-12-20T14:00:50;8.07;;;5.33;;
8594;SDS011;4335;48.860;9.198;2022-12-20T14:03:27;6.77;;;5.77;;
8594;SDS011;4335;48.860;9.198;2022-12-20T14:05:56;9.83;;;4.90;;
8594;SDS011;4335;48.860;9.198;2022-12-20T14:08:28;6.97;;;5.20;;
8594;SDS011;4335;48.860;9.198;2022-12-20T14:11:10;9.77;;;5.97;;
8594;SDS011;4335;48.860;9.198;2022-12-20T14:13:39;9.53;;;6.83;;
8594;SDS011;4335;48.860;9.198;2022-12-20T14:16:09;10.33;;;5.70;;
8594;SDS011;4335;48.860;9.198;2022-12-20T14:18:40;5.10;;;4.50;;
8594;SDS011;4335;48.860;9.198;2022-12-20T14:21:15;8.40;;;5.33;;
8594;SDS011;4335;48.860;9.198;2022-12-20T14:23:47;7.23;;;4.77;;
8594;SDS011;4335;48.860;9.198;2022-12-20T14:26:18;7.27;;;5.33;;
8594;SDS011;4335;48.860;9.198;2022-12-20T14:28:49;5.80;;;5.17;;
8594;SDS011;4335;48.860;9.198;2022-12-20T14:31:22;6.07;;;4.40;;
8594;SDS011;4335;48.860;9.198;2022-12-20T14:33:59;13.00;;;8.87;;
8594;SDS011;4335;48.860;9.198;2022-12-20T14:36:29;6.80;;;5.47;;
8594;SDS011;4335;48.860;9.198;2022-12-20T14:38:58;9.37;;;5.73;;
8594;SDS011;4335;48.860;9.198;2022-12-20T14:41:34;8.27;;;5.77;;
8594;SDS011;4335;48.860;9.198;2022-12-20T14:44:12;6.77;;;5.13;;
8594;SDS011;4335;48.860;9.198;2022-12-20T14:46:46;13.23;;;6.17;;
8594;SDS011;4335;48.860;9.198;2022-12-20T14:49:16;9.20;;;6.10;;
8594;SDS011;4335;48.860;9.198;2022-12-20T14:51:50;7.93;;;5.10;;
8594;SDS011;4335;48.860;9.198;2022-12-20T14:54:19;8.43;;;5.13;;
8594;SDS011;4335;48.860;9.198;2022-12-20T14:56:54;6.73;;;5.23;;
8594;SDS011;4335;48.860;9.198;2022-12-20T14:59:23;9.73;;;6.20;;
8594;SDS011;4335;48.860;9.198;2022-12-20T15:01:52;10.33;;;5.87;;
8594;SDS011;4335;48.860;9.198;2022-12-20T15:04:20;8.57;;;6.27;;
8594;SDS011;4335;48.860;9.198;2022-12-20T15:06:49;10.37;;;6.30;;
8594;SDS011;4335;48.860;9.198;2022-12-20T15:09:20;8.47;;;5.77;;
8594;SDS011;4335;48.860;9.198;2022-12-20T15:11:47;9.47;;;6.50;;
8594;SDS011;4335;48.860;9.198;2022-12-20T15:14:31;7.20;;;4.97;;
8594;SDS011;4335;48.860;9.198;2022-12-20T15:17:01;9.23;;;6.57;;
8594;SDS011;4335;48.860;9.198;2022-12-20T15:19:29;8.83;;;6.13;;
8594;SDS011;4335;48.860;9.198;2022-12-20T15:21:57;10.50;;;6.93;;
8594;SDS011;4335;48.860;9.198;2022-12-20T15:24:26;11.03;;;7.27;;
8594;SDS011;4335;48.860;9.198;2022-12-20T15:26:54;12.43;;;7.03;;
8594;SDS011;4335;48.860;9.198;2022-12-20T15:29:23;7.40;;;5.77;;
8594;SDS011;4335;48.860;9.198;2022-12-20T15:31:50;8.73;;;6.20;;
8594;SDS011;4335;48.860;9.198;2022-12-20T15:34:20;8.93;;;5.70;;
8594;SDS011;4335;48.860;9.198;2022-12-20T15:36:52;9.23;;;6.50;;
8594;SDS011;4335;48.860;9.198;2022-12-20T15:39:19;9.10;;;6.00;;
8594;SDS011;4335;48.860;9.198;2022-12-20T15:41:49;7.17;;;5.50;;
8594;SDS011;4335;48.860;9.198;2022-12-20T15:44:18;8.27;;;6.07;;
8594;SDS011;4335;48.860;9.198;2022-12-20T15:46:47;9.40;;;6.33;;
8594;SDS011;4335;48.860;9.198;2022-12-20T15:49:15;8.33;;;6.93;;
8594;SDS011;4335;48.860;9.198;2022-12-20T15:51:46;7.63;;;5.90;;
8594;SDS011;4335;48.860;9.198;2022-12-20T15:54:18;8.70;;;5.97;;
8594;SDS011;4335;48.860;9.198;2022-12-20T15:56:48;9.13;;;7.03;;
8594;SDS011;4335;48.860;9.198;2022-12-20T15:59:15;9.03;;;5.83;;
8594;SDS011;4335;48.860;9.198;2022-12-20T16:01:42;9.23;;;6.63;;
8594;SDS011;4335;48.860;9.198;2022-12-20T16:04:13;10.97;;;6.20;;
8594;SDS011;4335;48.860;9.198;2022-12-20T16:06:41;8.23;;;5.80;;
8594;SDS011;4335;48.860;9.198;2022-12-20T16:09:09;8.77;;;6.30;;
8594;SDS011;4335;48.860;9.198;2022-12-20T16:11:36;8.30;;;6.73;;
8594;SDS011;4335;48.860;9.198;2022-12-20T16:14:03;8.83;;;6.30;;